sensor_id;sensor_type;location;lat;lon;timestamp;P1;durP1;ratioP1;P2;durP2;ratioP2
71973;SDS011;59840;52.122;5.404;2024-02-21T00:01:16;6.55;;;1.48;;
71973;SDS011;59840;52.122;5.404;2024-02-21T00:03:43;3.40;;;1.53;;
71973;SDS011;59840;52.122;5.404;2024-02-21T00:06:10;4.68;;;1.90;;
71973;SDS011;59840;52.122;5.404;2024-02-21T00:08:37;4.38;;;1.63;;
71973;SDS011;59840;52.122;5.404;2024-02-21T00:11:04;4.65;;;1.67;;
71973;SDS011;59840;52.122;5.404;2024-02-21T00:13:31;6.55;;;1.52;;
71973;SDS011;59840;52.122;5.404;2024-02-21T00:15:57;7.63;;;1.90;;
71973;SDS011;59840;52.122;5.404;2024-02-21T00:18:24;5.43;;;1.67;;
71973;SDS011;59840;52.122;5.404;2024-02-21T00:20:55;9.32;;;1.95;;
71973;SDS011;59840;52.122;5.404;2024-02-21T00:23:22;5.85;;;1.42;;
71973;SDS011;59840;52.122;5.404;2024-02-21T00:25:49;9.60;;;1.95;;
71973;SDS011;59840;52.122;5.404;2024-02-21T00:28:16;9.10;;;1.50;;
71973;SDS011;59840;52.122;5.404;2024-02-21T00:30:43;4.25;;;1.30;;
71973;SDS011;59840;52.122;5.404;2024-02-21T00:33:10;5.35;;;1.45;;
71973;SDS011;59840;52.122;5.404;2024-02-21T00:35:37;4.43;;;1.45;;
71973;SDS011;59840;52.122;5.404;2024-02-21T00:38:04;10.25;;;1.92;;
71973;SDS011;59840;52.122;5.404;2024-02-21T00:40:31;5.73;;;1.53;;
71973;SDS011;59840;52.122;5.404;2024-02-21T00:42:58;5.30;;;1.45;;
71973;SDS011;59840;52.122;5.404;2024-02-21T00:45:24;6.30;;;1.42;;
71973;SDS011;59840;52.122;5.404;2024-02-21T00:47:51;4.75;;;1.45;;
71973;SDS011;59840;52.122;5.404;2024-02-21T00:50:17;6.35;;;1.52;;
71973;SDS011;59840;52.122;5.404;2024-02-21T00:52:44;5.97;;;2.07;;
71973;SDS011;59840;52.122;5.404;2024-02-21T00:55:11;4.45;;;1.70;;
71973;SDS011;59840;52.122;5.404;2024-02-21T00:57:38;7.53;;;1.55;;
71973;SDS011;59840;52.122;5.404;2024-02-21T01:00:04;6.00;;;1.83;;
71973;SDS011;59840;52.122;5.404;2024-02-21T01:02:32;5.30;;;1.55;;
71973;SDS011;59840;52.122;5.404;2024-02-21T01:04:58;6.07;;;1.30;;
71973;SDS011;59840;52.122;5.404;2024-02-21T01:07:25;5.78;;;1.35;;
71973;SDS011;59840;52.122;5.404;2024-02-21T01:09:52;7.72;;;1.33;;
71973;SDS011;59840;52.122;5.404;2024-02-21T01:12:19;4.68;;;1.30;;
71973;SDS011;59840;52.122;5.404;2024-02-21T01:14:45;5.47;;;1.35;;
71973;SDS011;59840;52.122;5.404;2024-02-21T01:17:12;6.90;;;1.20;;
71973;SDS011;59840;52.122;5.404;2024-02-21T01:19:39;9.38;;;1.70;;
71973;SDS011;59840;52.122;5.404;2024-02-21T01:22:06;8.05;;;1.60;;
71973;SDS011;59840;52.122;5.404;2024-02-21T01:24:33;7.43;;;1.67;;
71973;SDS011;59840;52.122;5.404;2024-02-21T01:26:59;7.10;;;1.77;;
71973;SDS011;59840;52.122;5.404;2024-02-21T01:29:26;7.07;;;1.73;;
71973;SDS011;59840;52.122;5.404;2024-02-21T01:31:52;8.02;;;1.83;;
71973;SDS011;59840;52.122;5.404;2024-02-21T01:34:19;8.45;;;1.70;;
71973;SDS011;59840;52.122;5.404;2024-02-21T01:36:46;6.22;;;1.70;;
71973;SDS011;59840;52.122;5.404;2024-02-21T01:39:12;8.10;;;2.10;;
71973;SDS011;59840;52.122;5.404;2024-02-21T01:41:39;6.57;;;1.87;;
71973;SDS011;59840;52.122;5.404;2024-02-21T01:44:06;8.10;;;2.10;;
71973;SDS011;59840;52.122;5.404;2024-02-21T01:46:32;7.88;;;2.08;;
71973;SDS011;59840;52.122;5.404;2024-02-21T01:49:00;8.05;;;2.15;;
71973;SDS011;59840;52.122;5.404;2024-02-21T01:51:27;11.25;;;2.17;;
71973;SDS011;59840;52.122;5.404;2024-02-21T01:53:54;7.37;;;2.07;;
71973;SDS011;59840;52.122;5.404;2024-02-21T01:56:22;5.00;;;2.42;;
71973;SDS011;59840;52.122;5.404;2024-02-21T01:58:50;6.97;;;2.20;;
71973;SDS011;59840;52.122;5.404;2024-02-21T02:01:17;3.80;;;2.15;;
71973;SDS011;59840;52.122;5.404;2024-02-21T02:03:47;7.07;;;2.20;;
71973;SDS011;59840;52.122;5.404;2024-02-21T02:06:15;10.20;;;2.70;;
71973;SDS011;59840;52.122;5.404;2024-02-21T02:08:42;7.63;;;2.30;;
71973;SDS011;59840;52.122;5.404;2024-02-21T02:11:09;8.70;;;2.78;;
71973;SDS011;59840;52.122;5.404;2024-02-21T02:13:36;5.10;;;2.33;;
71973;SDS011;59840;52.122;5.404;2024-02-21T02:16:03;5.50;;;2.33;;
71973;SDS011;59840;52.122;5.404;2024-02-21T02:18:30;8.63;;;2.13;;
71973;SDS011;59840;52.122;5.404;2024-02-21T02:20:57;8.18;;;2.40;;
71973;SDS011;59840;52.122;5.404;2024-02-21T02:25:58;5.22;;;1.77;;
71973;SDS011;59840;52.122;5.404;2024-02-21T02:28:25;10.05;;;2.72;;
71973;SDS011;59840;52.122;5.404;2024-02-21T02:30:51;10.83;;;2.50;;
71973;SDS011;59840;52.122;5.404;2024-02-21T02:33:18;4.22;;;2.28;;
71973;SDS011;59840;52.122;5.404;2024-02-21T02:35:45;9.25;;;2.53;;
71973;SDS011;59840;52.122;5.404;2024-02-21T02:38:12;6.57;;;2.25;;
71973;SDS011;59840;52.122;5.404;2024-02-21T02:40:40;6.68;;;2.80;;
71973;SDS011;59840;52.122;5.404;2024-02-21T02:43:07;8.67;;;3.20;;
71973;SDS011;59840;52.122;5.404;2024-02-21T02:45:34;7.25;;;2.60;;
71973;SDS011;59840;52.122;5.404;2024-02-21T02:48:01;10.45;;;3.50;;
71973;SDS011;59840;52.122;5.404;2024-02-21T02:50:28;8.88;;;2.60;;
71973;SDS011;59840;52.122;5.404;2024-02-21T02:52:55;5.90;;;2.58;;
71973;SDS011;59840;52.122;5.404;2024-02-21T02:55:22;7.20;;;2.20;;
71973;SDS011;59840;52.122;5.404;2024-02-21T02:57:49;7.80;;;2.05;;
71973;SDS011;59840;52.122;5.404;2024-02-21T03:00:16;6.70;;;2.05;;
71973;SDS011;59840;52.122;5.404;2024-02-21T03:02:43;5.47;;;2.47;;
71973;SDS011;59840;52.122;5.404;2024-02-21T03:05:16;8.95;;;2.63;;
71973;SDS011;59840;52.122;5.404;2024-02-21T03:07:44;6.03;;;2.20;;
71973;SDS011;59840;52.122;5.404;2024-02-21T03:10:12;4.20;;;2.00;;
71973;SDS011;59840;52.122;5.404;2024-02-21T03:12:39;8.02;;;2.42;;
71973;SDS011;59840;52.122;5.404;2024-02-21T03:15:06;6.57;;;2.28;;
71973;SDS011;59840;52.122;5.404;2024-02-21T03:17:33;5.68;;;2.15;;
71973;SDS011;59840;52.122;5.404;2024-02-21T03:20:01;8.40;;;2.27;;
71973;SDS011;59840;52.122;5.404;2024-02-21T03:22:32;13.70;;;2.97;;
71973;SDS011;59840;52.122;5.404;2024-02-21T03:25:01;9.10;;;3.20;;
71973;SDS011;59840;52.122;5.404;2024-02-21T03:27:28;6.13;;;1.95;;
71973;SDS011;59840;52.122;5.404;2024-02-21T03:29:55;6.82;;;1.95;;
71973;SDS011;59840;52.122;5.404;2024-02-21T03:32:21;3.77;;;1.90;;
71973;SDS011;59840;52.122;5.404;2024-02-21T03:34:48;5.95;;;2.30;;
71973;SDS011;59840;52.122;5.404;2024-02-21T03:37:15;5.75;;;2.08;;
71973;SDS011;59840;52.122;5.404;2024-02-21T03:39:41;9.90;;;3.08;;
71973;SDS011;59840;52.122;5.404;2024-02-21T03:42:08;7.20;;;2.95;;
71973;SDS011;59840;52.122;5.404;2024-02-21T03:44:34;6.63;;;2.73;;
71973;SDS011;59840;52.122;5.404;2024-02-21T03:47:01;8.93;;;2.85;;
71973;SDS011;59840;52.122;5.404;2024-02-21T03:49:28;8.52;;;2.88;;
71973;SDS011;59840;52.122;5.404;2024-02-21T03:51:55;11.55;;;2.70;;
71973;SDS011;59840;52.122;5.404;2024-02-21T03:54:22;6.63;;;2.90;;
71973;SDS011;59840;52.122;5.404;2024-02-21T03:56:49;9.13;;;2.60;;
71973;SDS011;59840;52.122;5.404;2024-02-21T03:59:15;6.70;;;2.40;;
71973;SDS011;59840;52.122;5.404;2024-02-21T04:01:42;5.50;;;2.60;;
71973;SDS011;59840;52.122;5.404;2024-02-21T04:04:09;7.00;;;2.30;;
71973;SDS011;59840;52.122;5.404;2024-02-21T04:06:36;10.15;;;2.92;;
71973;SDS011;59840;52.122;5.404;2024-02-21T04:09:03;5.33;;;2.50;;
71973;SDS011;59840;52.122;5.404;2024-02-21T04:11:30;6.18;;;2.35;;
71973;SDS011;59840;52.122;5.404;2024-02-21T04:13:56;4.30;;;2.92;;
71973;SDS011;59840;52.122;5.404;2024-02-21T04:16:23;4.00;;;2.22;;
71973;SDS011;59840;52.122;5.404;2024-02-21T04:18:50;6.43;;;2.50;;
71973;SDS011;59840;52.122;5.404;2024-02-21T04:21:17;5.03;;;2.33;;
71973;SDS011;59840;52.122;5.404;2024-02-21T04:23:43;6.68;;;2.42;;
71973;SDS011;59840;52.122;5.404;2024-02-21T04:26:10;4.40;;;2.17;;
71973;SDS011;59840;52.122;5.404;2024-02-21T04:28:36;6.00;;;2.78;;
71973;SDS011;59840;52.122;5.404;2024-02-21T04:31:03;7.13;;;2.72;;
71973;SDS011;59840;52.122;5.404;2024-02-21T04:33:30;7.13;;;2.73;;
71973;SDS011;59840;52.122;5.404;2024-02-21T04:35:56;6.97;;;2.90;;
71973;SDS011;59840;52.122;5.404;2024-02-21T04:38:24;4.95;;;1.90;;
71973;SDS011;59840;52.122;5.404;2024-02-21T04:40:51;3.80;;;2.00;;
71973;SDS011;59840;52.122;5.404;2024-02-21T04:43:18;8.73;;;2.30;;
71973;SDS011;59840;52.122;5.404;2024-02-21T04:45:45;10.57;;;2.63;;
71973;SDS011;59840;52.122;5.404;2024-02-21T04:48:11;5.78;;;2.75;;
71973;SDS011;59840;52.122;5.404;2024-02-21T04:50:38;8.50;;;2.15;;
71973;SDS011;59840;52.122;5.404;2024-02-21T04:53:05;4.40;;;2.65;;
71973;SDS011;59840;52.122;5.404;2024-02-21T04:55:31;10.90;;;2.70;;
71973;SDS011;59840;52.122;5.404;2024-02-21T04:57:58;7.37;;;2.73;;
71973;SDS011;59840;52.122;5.404;2024-02-21T05:00:24;5.25;;;2.83;;
71973;SDS011;59840;52.122;5.404;2024-02-21T05:02:51;6.38;;;2.58;;
71973;SDS011;59840;52.122;5.404;2024-02-21T05:05:17;4.55;;;2.50;;
71973;SDS011;59840;52.122;5.404;2024-02-21T05:07:44;5.45;;;2.50;;
71973;SDS011;59840;52.122;5.404;2024-02-21T05:10:11;8.47;;;2.80;;
71973;SDS011;59840;52.122;5.404;2024-02-21T05:12:38;5.45;;;2.58;;
71973;SDS011;59840;52.122;5.404;2024-02-21T05:15:05;6.45;;;2.75;;
71973;SDS011;59840;52.122;5.404;2024-02-21T05:17:32;6.00;;;2.72;;
71973;SDS011;59840;52.122;5.404;2024-02-21T05:19:59;6.10;;;2.78;;
71973;SDS011;59840;52.122;5.404;2024-02-21T05:22:26;4.87;;;2.80;;
71973;SDS011;59840;52.122;5.404;2024-02-21T05:24:52;5.82;;;2.97;;
71973;SDS011;59840;52.122;5.404;2024-02-21T05:27:19;10.50;;;3.28;;
71973;SDS011;59840;52.122;5.404;2024-02-21T05:29:45;6.28;;;3.10;;
71973;SDS011;59840;52.122;5.404;2024-02-21T05:32:12;7.53;;;3.10;;
71973;SDS011;59840;52.122;5.404;2024-02-21T05:34:39;7.73;;;3.10;;
71973;SDS011;59840;52.122;5.404;2024-02-21T05:37:06;7.68;;;2.95;;
71973;SDS011;59840;52.122;5.404;2024-02-21T05:39:33;10.30;;;3.67;;
71973;SDS011;59840;52.122;5.404;2024-02-21T05:41:59;4.82;;;2.45;;
71973;SDS011;59840;52.122;5.404;2024-02-21T05:44:26;6.18;;;2.83;;
71973;SDS011;59840;52.122;5.404;2024-02-21T05:46:53;7.97;;;3.00;;
71973;SDS011;59840;52.122;5.404;2024-02-21T05:49:20;5.60;;;3.10;;
71973;SDS011;59840;52.122;5.404;2024-02-21T05:51:46;7.35;;;3.10;;
71973;SDS011;59840;52.122;5.404;2024-02-21T05:54:13;7.38;;;3.42;;
71973;SDS011;59840;52.122;5.404;2024-02-21T05:56:43;4.68;;;2.95;;
71973;SDS011;59840;52.122;5.404;2024-02-21T05:59:10;6.83;;;3.23;;
71973;SDS011;59840;52.122;5.404;2024-02-21T06:01:37;4.47;;;3.13;;
71973;SDS011;59840;52.122;5.404;2024-02-21T06:04:03;6.55;;;3.65;;
71973;SDS011;59840;52.122;5.404;2024-02-21T06:06:31;5.63;;;3.03;;
71973;SDS011;59840;52.122;5.404;2024-02-21T06:08:57;7.45;;;3.40;;
71973;SDS011;59840;52.122;5.404;2024-02-21T06:11:25;7.10;;;4.00;;
71973;SDS011;59840;52.122;5.404;2024-02-21T06:13:59;6.45;;;3.33;;
71973;SDS011;59840;52.122;5.404;2024-02-21T06:16:26;5.88;;;3.70;;
71973;SDS011;59840;52.122;5.404;2024-02-21T06:18:53;8.07;;;3.35;;
71973;SDS011;59840;52.122;5.404;2024-02-21T06:21:19;6.65;;;3.33;;
71973;SDS011;59840;52.122;5.404;2024-02-21T06:23:46;8.70;;;3.70;;
71973;SDS011;59840;52.122;5.404;2024-02-21T06:26:13;6.65;;;3.75;;
71973;SDS011;59840;52.122;5.404;2024-02-21T06:28:39;7.70;;;3.92;;
71973;SDS011;59840;52.122;5.404;2024-02-21T06:31:06;6.03;;;3.78;;
71973;SDS011;59840;52.122;5.404;2024-02-21T06:33:32;8.40;;;4.80;;
71973;SDS011;59840;52.122;5.404;2024-02-21T06:35:59;10.47;;;4.37;;
71973;SDS011;59840;52.122;5.404;2024-02-21T06:38:26;12.23;;;5.10;;
71973;SDS011;59840;52.122;5.404;2024-02-21T06:40:52;10.90;;;5.18;;
71973;SDS011;59840;52.122;5.404;2024-02-21T06:43:20;10.38;;;5.07;;
71973;SDS011;59840;52.122;5.404;2024-02-21T06:45:47;13.90;;;5.40;;
71973;SDS011;59840;52.122;5.404;2024-02-21T06:48:17;12.77;;;6.27;;
71973;SDS011;59840;52.122;5.404;2024-02-21T06:50:44;10.07;;;5.10;;
71973;SDS011;59840;52.122;5.404;2024-02-21T06:53:11;12.68;;;6.15;;
71973;SDS011;59840;52.122;5.404;2024-02-21T06:55:38;12.07;;;5.43;;
71973;SDS011;59840;52.122;5.404;2024-02-21T06:58:05;14.05;;;5.80;;
71973;SDS011;59840;52.122;5.404;2024-02-21T07:00:34;14.30;;;6.07;;
71973;SDS011;59840;52.122;5.404;2024-02-21T07:03:01;10.88;;;5.93;;
71973;SDS011;59840;52.122;5.404;2024-02-21T07:05:28;14.68;;;6.63;;
71973;SDS011;59840;52.122;5.404;2024-02-21T07:07:55;11.85;;;6.53;;
71973;SDS011;59840;52.122;5.404;2024-02-21T07:10:22;13.65;;;6.95;;
71973;SDS011;59840;52.122;5.404;2024-02-21T07:12:49;13.73;;;7.27;;
71973;SDS011;59840;52.122;5.404;2024-02-21T07:15:15;21.20;;;7.43;;
71973;SDS011;59840;52.122;5.404;2024-02-21T07:17:42;15.63;;;7.03;;
71973;SDS011;59840;52.122;5.404;2024-02-21T07:20:09;16.05;;;6.50;;
71973;SDS011;59840;52.122;5.404;2024-02-21T07:22:36;18.42;;;6.35;;
71973;SDS011;59840;52.122;5.404;2024-02-21T07:25:02;11.30;;;5.47;;
71973;SDS011;59840;52.122;5.404;2024-02-21T07:27:32;13.25;;;6.03;;
71973;SDS011;59840;52.122;5.404;2024-02-21T07:29:59;13.50;;;6.20;;
71973;SDS011;59840;52.122;5.404;2024-02-21T07:32:26;11.43;;;5.30;;
71973;SDS011;59840;52.122;5.404;2024-02-21T07:34:52;12.25;;;5.57;;
71973;SDS011;59840;52.122;5.404;2024-02-21T07:37:19;14.17;;;4.90;;
71973;SDS011;59840;52.122;5.404;2024-02-21T07:39:46;12.98;;;5.30;;
71973;SDS011;59840;52.122;5.404;2024-02-21T07:42:12;6.82;;;5.03;;
71973;SDS011;59840;52.122;5.404;2024-02-21T07:44:39;16.38;;;5.70;;
71973;SDS011;59840;52.122;5.404;2024-02-21T07:47:06;10.98;;;5.13;;
71973;SDS011;59840;52.122;5.404;2024-02-21T07:49:42;10.87;;;4.60;;
71973;SDS011;59840;52.122;5.404;2024-02-21T07:52:11;9.93;;;4.88;;
71973;SDS011;59840;52.122;5.404;2024-02-21T07:54:38;9.73;;;4.60;;
71973;SDS011;59840;52.122;5.404;2024-02-21T07:57:05;9.55;;;4.50;;
71973;SDS011;59840;52.122;5.404;2024-02-21T07:59:36;10.05;;;4.85;;
71973;SDS011;59840;52.122;5.404;2024-02-21T08:02:05;11.20;;;4.60;;
71973;SDS011;59840;52.122;5.404;2024-02-21T08:04:37;13.60;;;4.75;;
71973;SDS011;59840;52.122;5.404;2024-02-21T08:07:05;10.45;;;4.43;;
71973;SDS011;59840;52.122;5.404;2024-02-21T08:15:16;11.77;;;4.60;;
71973;SDS011;59840;52.122;5.404;2024-02-21T08:17:44;10.80;;;4.88;;
71973;SDS011;59840;52.122;5.404;2024-02-21T08:20:13;9.55;;;4.25;;
71973;SDS011;59840;52.122;5.404;2024-02-21T08:22:49;8.85;;;4.25;;
71973;SDS011;59840;52.122;5.404;2024-02-21T08:25:27;10.10;;;4.50;;
71973;SDS011;59840;52.122;5.404;2024-02-21T08:28:00;11.83;;;4.90;;
71973;SDS011;59840;52.122;5.404;2024-02-21T08:36:37;12.15;;;5.18;;
71973;SDS011;59840;52.122;5.404;2024-02-21T08:39:10;10.65;;;4.97;;
71973;SDS011;59840;52.122;5.404;2024-02-21T08:41:43;11.80;;;5.20;;
71973;SDS011;59840;52.122;5.404;2024-02-21T08:44:30;12.18;;;5.40;;
71973;SDS011;59840;52.122;5.404;2024-02-21T08:46:57;11.70;;;5.25;;
71973;SDS011;59840;52.122;5.404;2024-02-21T08:49:39;12.25;;;4.95;;
71973;SDS011;59840;52.122;5.404;2024-02-21T08:52:09;12.32;;;5.72;;
71973;SDS011;59840;52.122;5.404;2024-02-21T08:54:47;8.33;;;5.00;;
71973;SDS011;59840;52.122;5.404;2024-02-21T08:57:31;8.43;;;5.22;;
71973;SDS011;59840;52.122;5.404;2024-02-21T09:00:05;11.00;;;5.43;;
71973;SDS011;59840;52.122;5.404;2024-02-21T09:02:43;6.72;;;4.57;;
71973;SDS011;59840;52.122;5.404;2024-02-21T09:05:13;9.55;;;4.45;;
71973;SDS011;59840;52.122;5.404;2024-02-21T09:07:41;8.67;;;4.27;;
71973;SDS011;59840;52.122;5.404;2024-02-21T09:10:13;8.07;;;4.55;;
71973;SDS011;59840;52.122;5.404;2024-02-21T09:12:40;7.78;;;3.95;;
71973;SDS011;59840;52.122;5.404;2024-02-21T09:15:06;8.35;;;4.45;;
71973;SDS011;59840;52.122;5.404;2024-02-21T09:17:35;8.13;;;4.18;;
71973;SDS011;59840;52.122;5.404;2024-02-21T09:20:02;5.90;;;3.60;;
71973;SDS011;59840;52.122;5.404;2024-02-21T09:22:33;9.85;;;4.13;;
71973;SDS011;59840;52.122;5.404;2024-02-21T09:25:02;7.88;;;4.22;;
71973;SDS011;59840;52.122;5.404;2024-02-21T09:27:31;11.50;;;4.43;;
71973;SDS011;59840;52.122;5.404;2024-02-21T09:30:00;10.30;;;4.45;;
71973;SDS011;59840;52.122;5.404;2024-02-21T09:32:31;9.17;;;4.30;;
71973;SDS011;59840;52.122;5.404;2024-02-21T09:34:59;9.63;;;3.95;;
71973;SDS011;59840;52.122;5.404;2024-02-21T09:37:29;6.40;;;4.15;;
71973;SDS011;59840;52.122;5.404;2024-02-21T09:39:58;6.25;;;4.00;;
71973;SDS011;59840;52.122;5.404;2024-02-21T09:42:29;8.93;;;4.32;;
71973;SDS011;59840;52.122;5.404;2024-02-21T09:45:07;8.20;;;4.33;;
71973;SDS011;59840;52.122;5.404;2024-02-21T09:47:46;7.82;;;3.20;;
71973;SDS011;59840;52.122;5.404;2024-02-21T09:50:25;8.65;;;3.75;;
71973;SDS011;59840;52.122;5.404;2024-02-21T09:52:53;7.53;;;3.80;;
71973;SDS011;59840;52.122;5.404;2024-02-21T09:55:27;8.68;;;3.67;;
71973;SDS011;59840;52.122;5.404;2024-02-21T09:57:56;9.37;;;3.67;;
71973;SDS011;59840;52.122;5.404;2024-02-21T10:00:24;5.13;;;3.33;;
71973;SDS011;59840;52.122;5.404;2024-02-21T10:02:59;7.40;;;3.72;;
71973;SDS011;59840;52.122;5.404;2024-02-21T10:05:36;9.80;;;3.35;;
71973;SDS011;59840;52.122;5.404;2024-02-21T10:08:06;8.27;;;3.33;;
71973;SDS011;59840;52.122;5.404;2024-02-21T10:10:43;5.23;;;3.00;;
71973;SDS011;59840;52.122;5.404;2024-02-21T10:13:26;6.43;;;3.20;;
71973;SDS011;59840;52.122;5.404;2024-02-21T10:18:33;6.55;;;3.22;;
71973;SDS011;59840;52.122;5.404;2024-02-21T10:21:12;6.03;;;3.20;;
71973;SDS011;59840;52.122;5.404;2024-02-21T10:23:43;4.97;;;2.93;;
71973;SDS011;59840;52.122;5.404;2024-02-21T10:26:16;7.90;;;3.53;;
71973;SDS011;59840;52.122;5.404;2024-02-21T10:28:44;5.43;;;3.08;;
71973;SDS011;59840;52.122;5.404;2024-02-21T10:31:23;7.63;;;2.80;;
71973;SDS011;59840;52.122;5.404;2024-02-21T10:33:55;4.70;;;2.90;;
71973;SDS011;59840;52.122;5.404;2024-02-21T10:36:27;4.33;;;2.50;;
71973;SDS011;59840;52.122;5.404;2024-02-21T10:38:57;5.65;;;2.90;;
71973;SDS011;59840;52.122;5.404;2024-02-21T10:41:26;3.65;;;2.50;;
71973;SDS011;59840;52.122;5.404;2024-02-21T10:43:56;4.68;;;2.30;;
71973;SDS011;59840;52.122;5.404;2024-02-21T10:46:25;5.55;;;2.25;;
71973;SDS011;59840;52.122;5.404;2024-02-21T10:49:12;4.77;;;2.47;;
71973;SDS011;59840;52.122;5.404;2024-02-21T10:51:46;3.88;;;2.17;;
71973;SDS011;59840;52.122;5.404;2024-02-21T10:54:34;3.05;;;1.92;;
71973;SDS011;59840;52.122;5.404;2024-02-21T10:57:13;7.22;;;2.10;;
71973;SDS011;59840;52.122;5.404;2024-02-21T10:59:47;3.35;;;2.38;;
71973;SDS011;59840;52.122;5.404;2024-02-21T11:02:17;2.77;;;1.77;;
71973;SDS011;59840;52.122;5.404;2024-02-21T11:04:45;3.53;;;2.55;;
71973;SDS011;59840;52.122;5.404;2024-02-21T11:07:13;5.00;;;2.58;;
71973;SDS011;59840;52.122;5.404;2024-02-21T11:09:50;3.08;;;2.15;;
71973;SDS011;59840;52.122;5.404;2024-02-21T11:12:22;5.30;;;2.30;;
71973;SDS011;59840;52.122;5.404;2024-02-21T11:14:52;6.37;;;2.40;;
71973;SDS011;59840;52.122;5.404;2024-02-21T11:17:55;3.63;;;2.72;;
71973;SDS011;59840;52.122;5.404;2024-02-21T11:23:27;4.80;;;2.63;;
71973;SDS011;59840;52.122;5.404;2024-02-21T11:26:10;5.32;;;2.90;;
71973;SDS011;59840;52.122;5.404;2024-02-21T11:29:02;4.07;;;2.60;;
71973;SDS011;59840;52.122;5.404;2024-02-21T11:31:43;4.97;;;2.95;;
71973;SDS011;59840;52.122;5.404;2024-02-21T11:34:22;5.43;;;3.13;;
71973;SDS011;59840;52.122;5.404;2024-02-21T11:36:52;4.17;;;2.70;;
71973;SDS011;59840;52.122;5.404;2024-02-21T11:39:25;4.95;;;2.83;;
71973;SDS011;59840;52.122;5.404;2024-02-21T11:42:05;4.03;;;2.70;;
71973;SDS011;59840;52.122;5.404;2024-02-21T11:44:40;4.65;;;2.70;;
71973;SDS011;59840;52.122;5.404;2024-02-21T11:47:08;5.65;;;2.90;;
71973;SDS011;59840;52.122;5.404;2024-02-21T11:49:47;3.70;;;2.95;;
71973;SDS011;59840;52.122;5.404;2024-02-21T11:52:22;5.22;;;2.67;;
71973;SDS011;59840;52.122;5.404;2024-02-21T11:57:43;4.95;;;2.75;;
71973;SDS011;59840;52.122;5.404;2024-02-21T12:03:59;5.47;;;3.08;;
71973;SDS011;59840;52.122;5.404;2024-02-21T12:06:32;5.53;;;3.50;;
71973;SDS011;59840;52.122;5.404;2024-02-21T12:08:59;8.40;;;3.73;;
71973;SDS011;59840;52.122;5.404;2024-02-21T12:11:31;5.70;;;3.47;;
71973;SDS011;59840;52.122;5.404;2024-02-21T12:14:00;5.43;;;3.47;;
71973;SDS011;59840;52.122;5.404;2024-02-21T12:19:39;6.63;;;3.00;;
71973;SDS011;59840;52.122;5.404;2024-02-21T12:22:16;5.13;;;2.87;;
71973;SDS011;59840;52.122;5.404;2024-02-21T12:24:57;4.93;;;3.20;;
71973;SDS011;59840;52.122;5.404;2024-02-21T12:27:24;7.55;;;3.67;;
71973;SDS011;59840;52.122;5.404;2024-02-21T12:29:52;4.88;;;2.92;;
71973;SDS011;59840;52.122;5.404;2024-02-21T12:32:25;4.97;;;3.13;;
71973;SDS011;59840;52.122;5.404;2024-02-21T12:34:52;8.83;;;3.50;;
71973;SDS011;59840;52.122;5.404;2024-02-21T12:37:21;4.28;;;2.78;;
71973;SDS011;59840;52.122;5.404;2024-02-21T12:39:53;5.28;;;3.10;;
71973;SDS011;59840;52.122;5.404;2024-02-21T12:42:20;4.85;;;3.00;;
71973;SDS011;59840;52.122;5.404;2024-02-21T12:44:47;4.00;;;2.83;;
71973;SDS011;59840;52.122;5.404;2024-02-21T12:47:18;6.33;;;2.80;;
71973;SDS011;59840;52.122;5.404;2024-02-21T12:49:56;4.78;;;3.05;;
71973;SDS011;59840;52.122;5.404;2024-02-21T12:52:27;4.28;;;2.83;;
71973;SDS011;59840;52.122;5.404;2024-02-21T12:55:05;3.53;;;2.47;;
71973;SDS011;59840;52.122;5.404;2024-02-21T12:57:37;7.05;;;3.00;;
71973;SDS011;59840;52.122;5.404;2024-02-21T13:00:11;3.97;;;2.50;;
71973;SDS011;59840;52.122;5.404;2024-02-21T13:02:43;4.47;;;2.60;;
71973;SDS011;59840;52.122;5.404;2024-02-21T13:05:12;5.90;;;2.78;;
71973;SDS011;59840;52.122;5.404;2024-02-21T13:07:43;4.30;;;2.28;;
71973;SDS011;59840;52.122;5.404;2024-02-21T13:10:12;4.65;;;2.50;;
71973;SDS011;59840;52.122;5.404;2024-02-21T13:12:44;3.27;;;2.47;;
71973;SDS011;59840;52.122;5.404;2024-02-21T13:15:13;3.45;;;2.25;;
71973;SDS011;59840;52.122;5.404;2024-02-21T13:17:42;3.88;;;2.40;;
71973;SDS011;59840;52.122;5.404;2024-02-21T13:20:10;4.40;;;2.42;;
71973;SDS011;59840;52.122;5.404;2024-02-21T13:22:38;3.10;;;2.20;;
71973;SDS011;59840;52.122;5.404;2024-02-21T13:25:07;4.73;;;3.07;;
71973;SDS011;59840;52.122;5.404;2024-02-21T13:27:39;3.08;;;2.22;;
71973;SDS011;59840;52.122;5.404;2024-02-21T13:30:05;3.50;;;2.70;;
71973;SDS011;59840;52.122;5.404;2024-02-21T13:32:38;4.68;;;2.50;;
71973;SDS011;59840;52.122;5.404;2024-02-21T13:35:10;3.95;;;2.38;;
71973;SDS011;59840;52.122;5.404;2024-02-21T13:37:42;3.67;;;1.97;;
71973;SDS011;59840;52.122;5.404;2024-02-21T13:40:11;3.50;;;2.05;;
71973;SDS011;59840;52.122;5.404;2024-02-21T13:45:18;4.53;;;2.22;;
71973;SDS011;59840;52.122;5.404;2024-02-21T13:47:57;4.32;;;2.13;;
71973;SDS011;59840;52.122;5.404;2024-02-21T13:50:31;4.47;;;1.70;;
71973;SDS011;59840;52.122;5.404;2024-02-21T13:52:58;5.85;;;2.28;;
71973;SDS011;59840;52.122;5.404;2024-02-21T13:55:30;3.78;;;1.90;;
71973;SDS011;59840;52.122;5.404;2024-02-21T13:57:57;2.17;;;1.90;;
71973;SDS011;59840;52.122;5.404;2024-02-21T14:00:34;5.68;;;2.00;;
71973;SDS011;59840;52.122;5.404;2024-02-21T14:03:02;6.03;;;1.90;;
71973;SDS011;59840;52.122;5.404;2024-02-21T14:05:29;5.85;;;1.80;;
71973;SDS011;59840;52.122;5.404;2024-02-21T14:07:56;4.40;;;1.60;;
71973;SDS011;59840;52.122;5.404;2024-02-21T14:10:23;5.05;;;1.88;;
71973;SDS011;59840;52.122;5.404;2024-02-21T14:12:50;4.03;;;1.55;;
71973;SDS011;59840;52.122;5.404;2024-02-21T14:15:20;8.80;;;2.07;;
71973;SDS011;59840;52.122;5.404;2024-02-21T14:17:47;6.22;;;1.65;;
71973;SDS011;59840;52.122;5.404;2024-02-21T14:20:16;3.95;;;2.03;;
71973;SDS011;59840;52.122;5.404;2024-02-21T14:22:43;3.97;;;1.85;;
71973;SDS011;59840;52.122;5.404;2024-02-21T14:25:10;3.67;;;1.75;;
71973;SDS011;59840;52.122;5.404;2024-02-21T14:27:52;4.93;;;1.90;;
71973;SDS011;59840;52.122;5.404;2024-02-21T14:30:19;4.55;;;1.60;;
71973;SDS011;59840;52.122;5.404;2024-02-21T14:32:49;4.80;;;1.70;;
71973;SDS011;59840;52.122;5.404;2024-02-21T14:35:22;4.32;;;1.95;;
71973;SDS011;59840;52.122;5.404;2024-02-21T14:37:50;5.22;;;1.98;;
71973;SDS011;59840;52.122;5.404;2024-02-21T14:40:21;4.27;;;2.07;;
71973;SDS011;59840;52.122;5.404;2024-02-21T14:42:48;2.47;;;1.30;;
71973;SDS011;59840;52.122;5.404;2024-02-21T14:45:15;2.42;;;1.40;;
71973;SDS011;59840;52.122;5.404;2024-02-21T14:47:42;4.40;;;1.60;;
71973;SDS011;59840;52.122;5.404;2024-02-21T14:50:08;4.13;;;1.70;;
71973;SDS011;59840;52.122;5.404;2024-02-21T14:52:36;4.07;;;1.90;;
71973;SDS011;59840;52.122;5.404;2024-02-21T14:55:03;2.42;;;1.30;;
71973;SDS011;59840;52.122;5.404;2024-02-21T14:57:34;5.35;;;2.10;;
71973;SDS011;59840;52.122;5.404;2024-02-21T15:00:02;4.57;;;1.73;;
71973;SDS011;59840;52.122;5.404;2024-02-21T15:02:34;3.78;;;1.38;;
71973;SDS011;59840;52.122;5.404;2024-02-21T15:05:01;4.30;;;1.90;;
71973;SDS011;59840;52.122;5.404;2024-02-21T15:07:30;4.07;;;1.80;;
71973;SDS011;59840;52.122;5.404;2024-02-21T15:09:57;4.00;;;1.52;;
71973;SDS011;59840;52.122;5.404;2024-02-21T15:12:24;4.00;;;1.70;;
71973;SDS011;59840;52.122;5.404;2024-02-21T15:14:53;5.75;;;1.65;;
71973;SDS011;59840;52.122;5.404;2024-02-21T15:17:20;4.53;;;1.90;;
71973;SDS011;59840;52.122;5.404;2024-02-21T15:19:50;4.63;;;2.20;;
71973;SDS011;59840;52.122;5.404;2024-02-21T15:22:17;4.43;;;1.85;;
71973;SDS011;59840;52.122;5.404;2024-02-21T15:24:46;3.45;;;2.17;;
71973;SDS011;59840;52.122;5.404;2024-02-21T15:27:15;3.58;;;1.77;;
71973;SDS011;59840;52.122;5.404;2024-02-21T15:29:42;4.03;;;1.80;;